sensor_id;sensor_type;location;lat;lon;timestamp;pressure;altitude;pressure_sealevel;temperature;humidity
56084;BME280;41958;52.416;13.428;2022-11-09T00:01:18;100476.47;;;11.72;81.58
56084;BME280;41958;52.416;13.428;2022-11-09T00:03:43;100479.63;;;11.71;82.07
56084;BME280;41958;52.416;13.428;2022-11-09T00:06:09;100483.25;;;11.71;80.31
56084;BME280;41958;52.416;13.428;2022-11-09T00:08:38;100488.31;;;11.66;81.40
56084;BME280;41958;52.416;13.428;2022-11-09T00:11:08;100491.19;;;11.69;81.36
56084;BME280;41958;52.416;13.428;2022-11-09T00:13:40;100476.84;;;11.71;80.38
56084;BME280;41958;52.416;13.428;2022-11-09T00:16:08;100481.13;;;11.84;80.20
56084;BME280;41958;52.416;13.428;2022-11-09T00:18:34;100473.19;;;11.86;80.08
56084;BME280;41958;52.416;13.428;2022-11-09T00:21:07;100480.84;;;11.89;79.64
56084;BME280;41958;52.416;13.428;2022-11-09T00:23:33;100479.31;;;11.92;79.72
56084;BME280;41958;52.416;13.428;2022-11-09T00:26:02;100450.63;;;11.79;78.51
56084;BME280;41958;52.416;13.428;2022-11-09T00:28:28;100478.78;;;11.86;79.82
56084;BME280;41958;52.416;13.428;2022-11-09T00:31:00;100482.94;;;11.92;79.34
56084;BME280;41958;52.416;13.428;2022-11-09T00:33:25;100487.81;;;11.95;79.32
56084;BME280;41958;52.416;13.428;2022-11-09T00:35:51;100482.22;;;11.95;78.79
56084;BME280;41958;52.416;13.428;2022-11-09T00:38:16;100467.84;;;11.97;78.34
56084;BME280;41958;52.416;13.428;2022-11-09T00:40:41;100487.31;;;12.09;78.33
56084;BME280;41958;52.416;13.428;2022-11-09T00:43:07;100478.78;;;12.02;78.10
56084;BME280;41958;52.416;13.428;2022-11-09T00:45:32;100471.53;;;12.01;78.71
56084;BME280;41958;52.416;13.428;2022-11-09T00:47:57;100477.66;;;12.07;78.53
56084;BME280;41958;52.416;13.428;2022-11-09T00:50:23;100480.09;;;12.08;78.89
56084;BME280;41958;52.416;13.428;2022-11-09T00:52:48;100451.84;;;11.97;78.19
56084;BME280;41958;52.416;13.428;2022-11-09T00:55:13;100477.38;;;12.12;77.31
56084;BME280;41958;52.416;13.428;2022-11-09T00:57:39;100461.81;;;12.14;77.31
56084;BME280;41958;52.416;13.428;2022-11-09T01:00:05;100470.50;;;12.09;78.15
56084;BME280;41958;52.416;13.428;2022-11-09T01:02:30;100465.38;;;12.11;77.81
56084;BME280;41958;52.416;13.428;2022-11-09T01:04:55;100476.13;;;12.09;77.44
56084;BME280;41958;52.416;13.428;2022-11-09T01:07:20;100470.22;;;12.14;76.72
56084;BME280;41958;52.416;13.428;2022-11-09T01:09:46;100465.28;;;12.08;77.38
56084;BME280;41958;52.416;13.428;2022-11-09T01:12:11;100460.47;;;12.08;77.39
56084;BME280;41958;52.416;13.428;2022-11-09T01:14:36;100455.91;;;12.00;77.94
56084;BME280;41958;52.416;13.428;2022-11-09T01:17:01;100459.88;;;11.99;78.29
56084;BME280;41958;52.416;13.428;2022-11-09T01:19:27;100461.31;;;11.93;78.84
56084;BME280;41958;52.416;13.428;2022-11-09T01:21:52;100469.47;;;11.98;78.73
56084;BME280;41958;52.416;13.428;2022-11-09T01:24:17;100469.22;;;11.87;79.09
56084;BME280;41958;52.416;13.428;2022-11-09T01:26:42;100461.97;;;11.86;79.18
56084;BME280;41958;52.416;13.428;2022-11-09T01:29:08;100462.63;;;11.79;80.04
56084;BME280;41958;52.416;13.428;2022-11-09T01:31:33;100458.13;;;11.75;79.91
56084;BME280;41958;52.416;13.428;2022-11-09T01:33:58;100457.59;;;11.69;80.13
56084;BME280;41958;52.416;13.428;2022-11-09T01:36:24;100431.56;;;11.49;80.62
56084;BME280;41958;52.416;13.428;2022-11-09T01:38:50;100456.63;;;11.61;80.58
56084;BME280;41958;52.416;13.428;2022-11-09T01:41:20;100457.63;;;11.53;80.89
56084;BME280;41958;52.416;13.428;2022-11-09T01:44:07;100462.50;;;11.40;81.84
56084;BME280;41958;52.416;13.428;2022-11-09T01:46:54;100452.47;;;11.39;81.84
56084;BME280;41958;52.416;13.428;2022-11-09T01:52:11;100458.28;;;11.30;81.63
56084;BME280;41958;52.416;13.428;2022-11-09T01:54:44;100452.41;;;11.20;82.46
56084;BME280;41958;52.416;13.428;2022-11-09T01:57:16;100455.94;;;11.17;82.87
56084;BME280;41958;52.416;13.428;2022-11-09T01:59:46;100451.34;;;11.08;83.76
56084;BME280;41958;52.416;13.428;2022-11-09T02:02:14;100443.47;;;10.98;84.08
56084;BME280;41958;52.416;13.428;2022-11-09T02:04:44;100444.22;;;10.95;84.10
56084;BME280;41958;52.416;13.428;2022-11-09T02:07:11;100443.69;;;10.89;83.30
56084;BME280;41958;52.416;13.428;2022-11-09T02:09:47;100418.41;;;10.86;83.71
56084;BME280;41958;52.416;13.428;2022-11-09T02:12:16;100425.88;;;10.82;83.80
56084;BME280;41958;52.416;13.428;2022-11-09T02:14:42;100416.88;;;10.72;84.29
56084;BME280;41958;52.416;13.428;2022-11-09T02:17:10;100410.38;;;10.68;84.79
56084;BME280;41958;52.416;13.428;2022-11-09T02:19:36;100414.44;;;10.71;83.34
56084;BME280;41958;52.416;13.428;2022-11-09T02:22:01;100416.06;;;10.72;83.89
56084;BME280;41958;52.416;13.428;2022-11-09T02:24:27;100417.84;;;10.64;84.31
56084;BME280;41958;52.416;13.428;2022-11-09T02:26:52;100420.16;;;10.62;84.73
56084;BME280;41958;52.416;13.428;2022-11-09T02:29:25;100419.19;;;10.54;85.61
56084;BME280;41958;52.416;13.428;2022-11-09T02:31:58;100427.56;;;10.54;85.44
56084;BME280;41958;52.416;13.428;2022-11-09T02:34:24;100415.50;;;10.50;85.36
56084;BME280;41958;52.416;13.428;2022-11-09T02:36:50;100411.94;;;10.37;85.83
56084;BME280;41958;52.416;13.428;2022-11-09T02:39:18;100419.25;;;10.42;85.53
56084;BME280;41958;52.416;13.428;2022-11-09T02:44:32;100412.88;;;10.29;86.24
56084;BME280;41958;52.416;13.428;2022-11-09T02:46:58;100416.38;;;10.26;85.86
56084;BME280;41958;52.416;13.428;2022-11-09T02:49:24;100400.22;;;10.19;86.27
56084;BME280;41958;52.416;13.428;2022-11-09T02:51:49;100410.94;;;10.17;85.99
56084;BME280;41958;52.416;13.428;2022-11-09T02:54:14;100404.31;;;10.22;86.80
56084;BME280;41958;52.416;13.428;2022-11-09T02:56:39;100401.63;;;10.13;86.90
56084;BME280;41958;52.416;13.428;2022-11-09T02:59:05;100404.56;;;10.17;86.14
56084;BME280;41958;52.416;13.428;2022-11-09T03:01:30;100404.91;;;10.15;86.38
56084;BME280;41958;52.416;13.428;2022-11-09T03:03:55;100418.63;;;10.20;86.80
56084;BME280;41958;52.416;13.428;2022-11-09T03:06:20;100409.78;;;10.18;87.03
56084;BME280;41958;52.416;13.428;2022-11-09T03:08:59;100411.59;;;10.26;86.39
56084;BME280;41958;52.416;13.428;2022-11-09T03:11:24;100402.53;;;10.29;87.04
56084;BME280;41958;52.416;13.428;2022-11-09T03:13:49;100402.16;;;10.31;86.68
56084;BME280;41958;52.416;13.428;2022-11-09T03:16:14;100400.06;;;10.28;86.43
56084;BME280;41958;52.416;13.428;2022-11-09T03:18:40;100404.09;;;10.43;86.68
56084;BME280;41958;52.416;13.428;2022-11-09T03:21:05;100395.38;;;10.44;86.10
56084;BME280;41958;52.416;13.428;2022-11-09T03:23:31;100384.91;;;10.41;85.92
56084;BME280;41958;52.416;13.428;2022-11-09T03:25:56;100403.94;;;10.52;85.67
56084;BME280;41958;52.416;13.428;2022-11-09T03:28:21;100397.53;;;10.51;86.11
56084;BME280;41958;52.416;13.428;2022-11-09T03:30:46;100400.53;;;10.58;85.65
56084;BME280;41958;52.416;13.428;2022-11-09T03:33:12;100396.22;;;10.61;85.12
56084;BME280;41958;52.416;13.428;2022-11-09T03:35:38;100393.97;;;10.67;85.44
56084;BME280;41958;52.416;13.428;2022-11-09T03:38:03;100395.03;;;10.62;85.20
56084;BME280;41958;52.416;13.428;2022-11-09T03:40:29;100410.47;;;10.72;85.80
56084;BME280;41958;52.416;13.428;2022-11-09T03:42:55;100405.78;;;10.76;85.47
56084;BME280;41958;52.416;13.428;2022-11-09T03:45:20;100410.66;;;10.79;86.09
56084;BME280;41958;52.416;13.428;2022-11-09T03:47:46;100407.66;;;10.88;85.24
56084;BME280;41958;52.416;13.428;2022-11-09T03:50:13;100400.91;;;10.89;85.68
56084;BME280;41958;52.416;13.428;2022-11-09T03:52:39;100410.19;;;10.93;84.80
56084;BME280;41958;52.416;13.428;2022-11-09T03:55:05;100407.41;;;10.93;86.22
56084;BME280;41958;52.416;13.428;2022-11-09T03:57:30;100407.50;;;10.96;86.35
56084;BME280;41958;52.416;13.428;2022-11-09T03:59:56;100416.16;;;11.07;86.17
56084;BME280;41958;52.416;13.428;2022-11-09T04:02:21;100414.53;;;11.06;86.14
56084;BME280;41958;52.416;13.428;2022-11-09T04:04:47;100417.69;;;11.05;86.94
56084;BME280;41958;52.416;13.428;2022-11-09T04:07:15;100421.47;;;11.12;86.04
56084;BME280;41958;52.416;13.428;2022-11-09T04:09:40;100418.75;;;11.16;86.41
56084;BME280;41958;52.416;13.428;2022-11-09T04:12:05;100416.31;;;11.14;87.55
56084;BME280;41958;52.416;13.428;2022-11-09T04:14:31;100398.22;;;11.08;87.69
56084;BME280;41958;52.416;13.428;2022-11-09T04:16:56;100413.00;;;11.25;87.63
56084;BME280;41958;52.416;13.428;2022-11-09T04:19:25;100415.41;;;11.26;88.42
56084;BME280;41958;52.416;13.428;2022-11-09T04:21:51;100413.25;;;11.36;87.03
56084;BME280;41958;52.416;13.428;2022-11-09T04:24:16;100419.00;;;11.43;86.80
56084;BME280;41958;52.416;13.428;2022-11-09T04:26:42;100414.56;;;11.42;87.63
56084;BME280;41958;52.416;13.428;2022-11-09T04:29:08;100409.88;;;11.46;87.45
56084;BME280;41958;52.416;13.428;2022-11-09T04:31:36;100401.94;;;11.48;86.54
56084;BME280;41958;52.416;13.428;2022-11-09T04:34:01;100406.88;;;11.55;86.99
56084;BME280;41958;52.416;13.428;2022-11-09T04:36:27;100410.94;;;11.57;86.83
56084;BME280;41958;52.416;13.428;2022-11-09T04:38:52;100401.72;;;11.57;86.91
56084;BME280;41958;52.416;13.428;2022-11-09T04:41:17;100421.31;;;11.57;87.46
56084;BME280;41958;52.416;13.428;2022-11-09T04:43:42;100411.84;;;11.61;87.08
56084;BME280;41958;52.416;13.428;2022-11-09T04:46:08;100411.00;;;11.61;87.42
56084;BME280;41958;52.416;13.428;2022-11-09T04:48:36;100417.81;;;11.60;88.23
56084;BME280;41958;52.416;13.428;2022-11-09T04:51:05;100417.72;;;11.56;88.25
56084;BME280;41958;52.416;13.428;2022-11-09T04:53:31;100421.78;;;11.59;89.21
56084;BME280;41958;52.416;13.428;2022-11-09T04:55:57;100427.56;;;11.50;91.97
56084;BME280;41958;52.416;13.428;2022-11-09T04:58:22;100420.63;;;11.44;92.50
56084;BME280;41958;52.416;13.428;2022-11-09T05:00:48;100425.41;;;11.43;93.78
56084;BME280;41958;52.416;13.428;2022-11-09T05:03:13;100428.50;;;11.38;93.19
56084;BME280;41958;52.416;13.428;2022-11-09T05:05:39;100418.38;;;11.34;94.34
56084;BME280;41958;52.416;13.428;2022-11-09T05:08:06;100433.53;;;11.33;94.40
56084;BME280;41958;52.416;13.428;2022-11-09T05:10:31;100438.78;;;11.34;92.30
56084;BME280;41958;52.416;13.428;2022-11-09T05:12:58;100442.56;;;11.42;91.95
56084;BME280;41958;52.416;13.428;2022-11-09T05:15:24;100443.44;;;11.46;93.27
56084;BME280;41958;52.416;13.428;2022-11-09T05:17:49;100435.63;;;11.36;94.12
56084;BME280;41958;52.416;13.428;2022-11-09T05:20:14;100439.59;;;11.35;94.19
56084;BME280;41958;52.416;13.428;2022-11-09T05:22:40;100431.00;;;11.43;93.05
56084;BME280;41958;52.416;13.428;2022-11-09T05:25:23;100436.78;;;11.51;94.17
56084;BME280;41958;52.416;13.428;2022-11-09T05:27:49;100427.56;;;11.50;95.34
56084;BME280;41958;52.416;13.428;2022-11-09T05:30:14;100433.25;;;11.54;94.94
56084;BME280;41958;52.416;13.428;2022-11-09T05:32:39;100436.03;;;11.54;95.79
56084;BME280;41958;52.416;13.428;2022-11-09T05:35:05;100433.72;;;11.56;96.68
56084;BME280;41958;52.416;13.428;2022-11-09T05:37:30;100434.88;;;11.55;96.74
56084;BME280;41958;52.416;13.428;2022-11-09T05:39:56;100446.06;;;11.55;97.01
56084;BME280;41958;52.416;13.428;2022-11-09T05:42:23;100435.31;;;11.57;97.04
56084;BME280;41958;52.416;13.428;2022-11-09T05:44:48;100434.88;;;11.55;96.22
56084;BME280;41958;52.416;13.428;2022-11-09T05:47:13;100439.09;;;11.64;95.97
56084;BME280;41958;52.416;13.428;2022-11-09T05:49:38;100421.94;;;11.66;95.16
56084;BME280;41958;52.416;13.428;2022-11-09T05:52:04;100430.41;;;11.70;94.90
56084;BME280;41958;52.416;13.428;2022-11-09T05:54:29;100430.84;;;11.72;94.60
56084;BME280;41958;52.416;13.428;2022-11-09T05:56:54;100433.88;;;11.63;94.53
56084;BME280;41958;52.416;13.428;2022-11-09T05:59:19;100428.41;;;11.70;93.62
56084;BME280;41958;52.416;13.428;2022-11-09T06:01:45;100431.75;;;11.76;93.18
56084;BME280;41958;52.416;13.428;2022-11-09T06:04:10;100437.72;;;11.74;93.22
56084;BME280;41958;52.416;13.428;2022-11-09T06:06:35;100442.13;;;11.75;93.67
56084;BME280;41958;52.416;13.428;2022-11-09T06:09:00;100448.63;;;11.79;93.18
56084;BME280;41958;52.416;13.428;2022-11-09T06:11:26;100439.81;;;11.77;92.45
56084;BME280;41958;52.416;13.428;2022-11-09T06:13:52;100455.03;;;11.80;91.75
56084;BME280;41958;52.416;13.428;2022-11-09T06:16:18;100453.13;;;11.84;92.31
56084;BME280;41958;52.416;13.428;2022-11-09T06:18:43;100447.97;;;11.86;91.70
56084;BME280;41958;52.416;13.428;2022-11-09T06:21:09;100440.09;;;11.92;91.38
56084;BME280;41958;52.416;13.428;2022-11-09T06:23:34;100447.25;;;11.89;91.19
56084;BME280;41958;52.416;13.428;2022-11-09T06:26:01;100443.19;;;11.87;91.04
56084;BME280;41958;52.416;13.428;2022-11-09T06:28:27;100457.81;;;11.96;90.12
56084;BME280;41958;52.416;13.428;2022-11-09T06:30:56;100468.75;;;12.01;90.30
56084;BME280;41958;52.416;13.428;2022-11-09T06:33:22;100459.88;;;11.99;90.25
56084;BME280;41958;52.416;13.428;2022-11-09T06:35:47;100459.59;;;12.04;89.74
56084;BME280;41958;52.416;13.428;2022-11-09T06:38:12;100460.94;;;12.10;89.32
56084;BME280;41958;52.416;13.428;2022-11-09T06:40:38;100462.34;;;12.01;90.61
56084;BME280;41958;52.416;13.428;2022-11-09T06:43:03;100468.88;;;12.08;89.45
56084;BME280;41958;52.416;13.428;2022-11-09T06:45:29;100474.56;;;12.12;89.41
56084;BME280;41958;52.416;13.428;2022-11-09T06:47:56;100464.53;;;12.11;89.34
56084;BME280;41958;52.416;13.428;2022-11-09T06:50:21;100450.31;;;12.00;88.71
56084;BME280;41958;52.416;13.428;2022-11-09T06:52:46;100484.25;;;12.14;88.39
56084;BME280;41958;52.416;13.428;2022-11-09T06:55:12;100493.06;;;12.17;88.20
56084;BME280;41958;52.416;13.428;2022-11-09T06:57:37;100492.34;;;12.20;88.05
56084;BME280;41958;52.416;13.428;2022-11-09T07:00:03;100489.56;;;12.20;88.32
56084;BME280;41958;52.416;13.428;2022-11-09T07:02:29;100490.63;;;12.15;88.54
56084;BME280;41958;52.416;13.428;2022-11-09T07:04:54;100492.28;;;12.16;90.03
56084;BME280;41958;52.416;13.428;2022-11-09T07:07:19;100486.44;;;12.05;90.52
56084;BME280;41958;52.416;13.428;2022-11-09T07:09:45;100496.75;;;12.01;92.76
56084;BME280;41958;52.416;13.428;2022-11-09T07:12:10;100498.66;;;11.97;92.86
56084;BME280;41958;52.416;13.428;2022-11-09T07:14:36;100500.28;;;11.98;94.38
56084;BME280;41958;52.416;13.428;2022-11-09T07:17:01;100469.38;;;11.94;94.01
56084;BME280;41958;52.416;13.428;2022-11-09T07:19:29;100457.53;;;11.85;95.93
56084;BME280;41958;52.416;13.428;2022-11-09T07:21:55;100457.63;;;11.89;97.27
56084;BME280;41958;52.416;13.428;2022-11-09T07:24:21;100462.19;;;11.77;98.47
56084;BME280;41958;52.416;13.428;2022-11-09T07:26:47;100477.09;;;11.81;98.76
56084;BME280;41958;52.416;13.428;2022-11-09T07:29:13;100464.69;;;11.82;98.34
56084;BME280;41958;52.416;13.428;2022-11-09T07:31:38;100467.97;;;11.69;99.87
56084;BME280;41958;52.416;13.428;2022-11-09T07:34:03;100458.69;;;11.64;100.00
56084;BME280;41958;52.416;13.428;2022-11-09T07:36:30;100462.38;;;11.69;100.00
56084;BME280;41958;52.416;13.428;2022-11-09T07:38:56;100442.09;;;11.56;100.00
56084;BME280;41958;52.416;13.428;2022-11-09T07:41:22;100439.09;;;11.64;100.00
56084;BME280;41958;52.416;13.428;2022-11-09T07:43:47;100434.66;;;11.63;100.00
56084;BME280;41958;52.416;13.428;2022-11-09T07:46:12;100432.84;;;11.71;100.00
56084;BME280;41958;52.416;13.428;2022-11-09T07:48:37;100454.44;;;11.71;100.00
56084;BME280;41958;52.416;13.428;2022-11-09T07:51:03;100486.56;;;11.77;100.00
56084;BME280;41958;52.416;13.428;2022-11-09T07:53:28;100511.75;;;11.77;100.00
56084;BME280;41958;52.416;13.428;2022-11-09T07:56:01;100499.13;;;11.67;100.00
56084;BME280;41958;52.416;13.428;2022-11-09T07:58:27;100497.22;;;11.71;100.00
56084;BME280;41958;52.416;13.428;2022-11-09T08:00:53;100515.03;;;11.79;100.00
56084;BME280;41958;52.416;13.428;2022-11-09T08:03:19;100522.69;;;11.82;100.00
56084;BME280;41958;52.416;13.428;2022-11-09T08:05:55;100517.81;;;11.79;100.00
56084;BME280;41958;52.416;13.428;2022-11-09T08:08:20;100512.13;;;11.75;100.00
56084;BME280;41958;52.416;13.428;2022-11-09T08:10:46;100520.25;;;11.80;100.00
56084;BME280;41958;52.416;13.428;2022-11-09T08:13:16;100508.59;;;11.78;100.00
56084;BME280;41958;52.416;13.428;2022-11-09T08:15:43;100503.09;;;11.82;100.00
56084;BME280;41958;52.416;13.428;2022-11-09T08:18:14;100499.03;;;11.95;100.00
56084;BME280;41958;52.416;13.428;2022-11-09T08:20:40;100519.88;;;11.82;100.00
56084;BME280;41958;52.416;13.428;2022-11-09T08:23:05;100519.63;;;11.87;100.00
56084;BME280;41958;52.416;13.428;2022-11-09T08:25:34;100506.78;;;11.86;100.00
56084;BME280;41958;52.416;13.428;2022-11-09T08:28:00;100507.94;;;11.85;100.00
56084;BME280;41958;52.416;13.428;2022-11-09T08:30:26;100497.22;;;11.87;100.00
56084;BME280;41958;52.416;13.428;2022-11-09T08:32:51;100493.94;;;11.85;100.00
56084;BME280;41958;52.416;13.428;2022-11-09T08:35:19;100496.03;;;11.88;100.00
56084;BME280;41958;52.416;13.428;2022-11-09T08:37:46;100486.56;;;11.77;100.00
56084;BME280;41958;52.416;13.428;2022-11-09T08:40:14;100494.94;;;11.93;100.00
56084;BME280;41958;52.416;13.428;2022-11-09T08:42:40;100496.38;;;11.87;100.00
56084;BME280;41958;52.416;13.428;2022-11-09T08:45:05;100495.94;;;11.85;100.00
56084;BME280;41958;52.416;13.428;2022-11-09T08:47:31;100511.13;;;11.84;100.00
56084;BME280;41958;52.416;13.428;2022-11-09T08:49:56;100521.16;;;11.85;100.00
56084;BME280;41958;52.416;13.428;2022-11-09T08:52:21;100513.09;;;11.99;100.00
56084;BME280;41958;52.416;13.428;2022-11-09T08:54:47;100523.66;;;11.90;100.00
56084;BME280;41958;52.416;13.428;2022-11-09T08:57:16;100521.66;;;11.90;100.00
56084;BME280;41958;52.416;13.428;2022-11-09T08:59:42;100521.44;;;11.95;100.00
56084;BME280;41958;52.416;13.428;2022-11-09T09:02:08;100524.28;;;11.99;100.00
56084;BME280;41958;52.416;13.428;2022-11-09T09:04:33;100528.53;;;12.09;100.00
56084;BME280;41958;52.416;13.428;2022-11-09T09:06:58;100522.66;;;12.14;100.00
56084;BME280;41958;52.416;13.428;2022-11-09T09:09:24;100527.94;;;12.19;100.00
56084;BME280;41958;52.416;13.428;2022-11-09T09:11:49;100530.59;;;12.12;100.00
56084;BME280;41958;52.416;13.428;2022-11-09T09:14:14;100531.06;;;12.14;100.00
56084;BME280;41958;52.416;13.428;2022-11-09T09:16:41;100541.91;;;12.16;100.00
56084;BME280;41958;52.416;13.428;2022-11-09T09:19:06;100535.28;;;12.24;100.00
56084;BME280;41958;52.416;13.428;2022-11-09T09:21:31;100528.69;;;12.36;100.00
56084;BME280;41958;52.416;13.428;2022-11-09T09:23:57;100537.19;;;12.20;100.00
56084;BME280;41958;52.416;13.428;2022-11-09T09:26:22;100532.53;;;12.27;100.00
56084;BME280;41958;52.416;13.428;2022-11-09T09:28:47;100536.16;;;12.47;100.00
56084;BME280;41958;52.416;13.428;2022-11-09T09:31:12;100538.44;;;12.42;100.00
56084;BME280;41958;52.416;13.428;2022-11-09T09:33:38;100534.91;;;12.45;100.00
56084;BME280;41958;52.416;13.428;2022-11-09T09:36:03;100541.63;;;12.40;100.00
56084;BME280;41958;52.416;13.428;2022-11-09T09:38:29;100547.16;;;12.37;100.00
56084;BME280;41958;52.416;13.428;2022-11-09T09:40:59;100535.00;;;12.29;100.00
56084;BME280;41958;52.416;13.428;2022-11-09T09:43:32;100566.56;;;12.45;100.00
56084;BME280;41958;52.416;13.428;2022-11-09T09:46:01;100559.47;;;12.32;100.00
56084;BME280;41958;52.416;13.428;2022-11-09T09:48:37;100552.19;;;12.47;100.00
56084;BME280;41958;52.416;13.428;2022-11-09T09:54:17;100567.59;;;12.76;99.54
56084;BME280;41958;52.416;13.428;2022-11-09T09:56:45;100572.41;;;12.76;99.28
56084;BME280;41958;52.416;13.428;2022-11-09T09:59:18;100573.44;;;12.68;99.20
56084;BME280;41958;52.416;13.428;2022-11-09T10:01:45;100583.09;;;12.70;99.29
56084;BME280;41958;52.416;13.428;2022-11-09T10:04:22;100579.03;;;12.68;99.80
56084;BME280;41958;52.416;13.428;2022-11-09T10:06:58;100589.13;;;12.72;99.52
56084;BME280;41958;52.416;13.428;2022-11-09T10:09:34;100594.63;;;12.85;98.42
56084;BME280;41958;52.416;13.428;2022-11-09T10:12:23;100577.25;;;12.79;98.17
56084;BME280;41958;52.416;13.428;2022-11-09T10:21:05;100585.63;;;12.75;99.25
56084;BME280;41958;52.416;13.428;2022-11-09T10:23:53;100579.25;;;12.78;100.00
56084;BME280;41958;52.416;13.428;2022-11-09T10:26:28;100564.94;;;12.84;99.18
56084;BME280;41958;52.416;13.428;2022-11-09T10:29:05;100578.16;;;13.03;98.99
56084;BME280;41958;52.416;13.428;2022-11-09T10:31:37;100568.84;;;12.98;97.99
56084;BME280;41958;52.416;13.428;2022-11-09T10:34:20;100578.06;;;12.99;98.23
56084;BME280;41958;52.416;13.428;2022-11-09T10:36:55;100570.53;;;13.03;97.83
56084;BME280;41958;52.416;13.428;2022-11-09T10:39:24;100551.53;;;12.93;98.03
56084;BME280;41958;52.416;13.428;2022-11-09T10:41:50;100555.41;;;13.08;97.72
56084;BME280;41958;52.416;13.428;2022-11-09T10:44:17;100545.44;;;13.10;97.00
56084;BME280;41958;52.416;13.428;2022-11-09T10:47:22;100557.59;;;13.18;96.15
56084;BME280;41958;52.416;13.428;2022-11-09T10:52:36;100548.72;;;13.59;95.81
56084;BME280;41958;52.416;13.428;2022-11-09T10:55:25;100537.22;;;13.68;94.70
56084;BME280;41958;52.416;13.428;2022-11-09T10:57:57;100535.09;;;13.84;94.52
56084;BME280;41958;52.416;13.428;2022-11-09T11:00:29;100523.84;;;13.84;93.27
56084;BME280;41958;52.416;13.428;2022-11-09T11:02:55;100522.28;;;13.87;93.99
56084;BME280;41958;52.416;13.428;2022-11-09T11:05:28;100519.91;;;13.89;93.44
56084;BME280;41958;52.416;13.428;2022-11-09T11:07:53;100521.28;;;14.02;93.30
56084;BME280;41958;52.416;13.428;2022-11-09T11:10:20;100514.03;;;13.97;93.01
56084;BME280;41958;52.416;13.428;2022-11-09T11:12:51;100520.19;;;14.07;92.86
56084;BME280;41958;52.416;13.428;2022-11-09T11:17:48;100504.75;;;13.97;93.53
56084;BME280;41958;52.416;13.428;2022-11-09T11:22:47;100522.31;;;14.17;91.38
56084;BME280;41958;52.416;13.428;2022-11-09T11:25:18;100513.16;;;14.24;92.41
56084;BME280;41958;52.416;13.428;2022-11-09T11:27:53;100526.19;;;14.36;91.84
56084;BME280;41958;52.416;13.428;2022-11-09T11:30:27;100508.88;;;14.33;91.83
56084;BME280;41958;52.416;13.428;2022-11-09T11:32:53;100519.47;;;14.44;91.03
56084;BME280;41958;52.416;13.428;2022-11-09T11:35:33;100519.16;;;14.53;90.25
56084;BME280;41958;52.416;13.428;2022-11-09T11:38:06;100517.59;;;14.55;89.99
56084;BME280;41958;52.416;13.428;2022-11-09T11:40:53;100514.19;;;14.69;90.24
56084;BME280;41958;52.416;13.428;2022-11-09T11:43:33;100510.25;;;14.77;89.50
56084;BME280;41958;52.416;13.428;2022-11-09T11:48:53;100504.91;;;14.65;90.06
56084;BME280;41958;52.416;13.428;2022-11-09T11:51:23;100498.28;;;14.54;90.78
56084;BME280;41958;52.416;13.428;2022-11-09T11:56:32;100494.16;;;14.44;90.43
56084;BME280;41958;52.416;13.428;2022-11-09T12:04:39;100476.88;;;14.76;90.02
56084;BME280;41958;52.416;13.428;2022-11-09T12:07:13;100476.53;;;14.81;89.33
56084;BME280;41958;52.416;13.428;2022-11-09T12:10:00;100470.09;;;14.80;89.35
56084;BME280;41958;52.416;13.428;2022-11-09T12:18:11;100496.94;;;14.74;88.90
56084;BME280;41958;52.416;13.428;2022-11-09T12:20:52;100494.63;;;14.49;91.20
56084;BME280;41958;52.416;13.428;2022-11-09T12:23:27;100492.97;;;14.45;90.34
56084;BME280;41958;52.416;13.428;2022-11-09T12:26:15;100486.63;;;14.52;89.62
56084;BME280;41958;52.416;13.428;2022-11-09T12:31:31;100487.03;;;14.54;91.24
56084;BME280;41958;52.416;13.428;2022-11-09T12:34:12;100484.22;;;14.54;90.97
56084;BME280;41958;52.416;13.428;2022-11-09T12:36:53;100467.31;;;14.50;90.72
56084;BME280;41958;52.416;13.428;2022-11-09T12:42:02;100488.94;;;14.76;89.49
56084;BME280;41958;52.416;13.428;2022-11-09T12:44:33;100497.44;;;14.80;90.37
56084;BME280;41958;52.416;13.428;2022-11-09T12:47:23;100497.16;;;14.92;89.11
56084;BME280;41958;52.416;13.428;2022-11-09T12:49:51;100476.63;;;14.88;89.12
56084;BME280;41958;52.416;13.428;2022-11-09T12:52:20;100472.91;;;14.80;88.84
56084;BME280;41958;52.416;13.428;2022-11-09T12:54:51;100500.59;;;14.78;89.05
56084;BME280;41958;52.416;13.428;2022-11-09T12:57:22;100492.38;;;14.96;87.75
56084;BME280;41958;52.416;13.428;2022-11-09T12:59:53;100487.94;;;14.95;86.53
56084;BME280;41958;52.416;13.428;2022-11-09T13:02:30;100489.59;;;15.00;87.82
56084;BME280;41958;52.416;13.428;2022-11-09T13:04:58;100484.03;;;15.07;87.54
56084;BME280;41958;52.416;13.428;2022-11-09T13:07:31;100475.00;;;14.87;88.17
56084;BME280;41958;52.416;13.428;2022-11-09T13:09:59;100480.66;;;14.91;88.68
56084;BME280;41958;52.416;13.428;2022-11-09T13:12:36;100461.22;;;14.78;88.68
56084;BME280;41958;52.416;13.428;2022-11-09T13:15:24;100479.94;;;15.01;86.74
56084;BME280;41958;52.416;13.428;2022-11-09T13:17:54;100456.94;;;14.88;87.12
56084;BME280;41958;52.416;13.428;2022-11-09T13:23:03;100480.28;;;14.96;87.45
56084;BME280;41958;52.416;13.428;2022-11-09T13:25:46;100484.41;;;15.02;87.30
56084;BME280;41958;52.416;13.428;2022-11-09T13:28:40;100489.25;;;15.05;87.56
56084;BME280;41958;52.416;13.428;2022-11-09T13:31:08;100465.81;;;14.94;86.72